createdAt,value
2022-08-23T00:02:23.011Z,3.00
2022-08-23T00:05:07.590Z,2.40
2022-08-23T00:07:38.628Z,2.57
2022-08-23T00:10:08.719Z,2.70
2022-08-23T00:12:37.085Z,2.50
2022-08-23T00:15:08.963Z,3.23
2022-08-23T00:17:38.085Z,2.57
2022-08-23T00:20:07.479Z,2.60
2022-08-23T00:22:36.031Z,2.77
2022-08-23T00:25:04.415Z,3.10
2022-08-23T00:27:33.471Z,2.73
2022-08-23T00:30:02.422Z,3.50
2022-08-23T00:32:33.531Z,3.17
2022-08-23T00:35:02.004Z,2.90
2022-08-23T00:37:32.341Z,3.40
2022-08-23T00:40:01.176Z,3.20
2022-08-23T00:42:52.373Z,2.83
2022-08-23T00:45:43.048Z,2.77
2022-08-23T00:48:13.523Z,2.97
2022-08-23T00:50:50.094Z,3.17
2022-08-23T00:53:21.477Z,2.73
2022-08-23T00:55:52.121Z,2.90
2022-08-23T00:58:21.793Z,3.10
2022-08-23T01:00:53.633Z,3.17
2022-08-23T01:03:25.589Z,2.70
2022-08-23T01:06:02.747Z,3.17
2022-08-23T01:08:34.121Z,3.40
2022-08-23T01:11:08.815Z,2.93
2022-08-23T01:13:40.798Z,3.37
2022-08-23T01:16:22.956Z,3.40
2022-08-23T01:18:52.999Z,3.20
2022-08-23T01:21:26.883Z,3.60
2022-08-23T01:24:00.854Z,2.90
2022-08-23T01:26:32.069Z,3.23
2022-08-23T01:29:00.597Z,3.40
2022-08-23T01:31:29.125Z,2.83
2022-08-23T01:34:02.297Z,3.33
2022-08-23T01:36:31.881Z,3.20
2022-08-23T01:39:01.770Z,3.47
2022-08-23T01:41:30.222Z,3.40
2022-08-23T01:43:58.708Z,2.90
2022-08-23T01:46:27.242Z,3.40
2022-08-23T01:48:56.059Z,2.90
2022-08-23T01:51:25.052Z,3.53
2022-08-23T01:53:53.378Z,3.30
2022-08-23T01:56:38.038Z,3.33
2022-08-23T01:59:07.027Z,3.43
2022-08-23T02:01:36.598Z,3.57
2022-08-23T02:04:05.581Z,3.10
2022-08-23T02:06:34.339Z,3.53
2022-08-23T02:09:03.531Z,3.67
2022-08-23T02:11:36.084Z,3.50
2022-08-23T02:14:06.661Z,3.37
2022-08-23T02:16:37.369Z,3.50
2022-08-23T02:19:06.242Z,3.57
2022-08-23T02:21:35.769Z,3.17
2022-08-23T02:24:06.383Z,3.77
2022-08-23T02:26:36.405Z,3.80
2022-08-23T02:29:05.766Z,3.30
2022-08-23T02:31:34.987Z,3.67
2022-08-23T02:34:04.212Z,3.70
2022-08-23T02:36:32.616Z,3.70
2022-08-23T02:39:01.041Z,3.13
2022-08-23T02:41:30.060Z,3.23
2022-08-23T02:44:00.441Z,3.23
2022-08-23T02:46:28.830Z,4.03
2022-08-23T02:48:57.203Z,3.70
2022-08-23T02:51:26.232Z,3.90
2022-08-23T02:53:54.589Z,3.33
2022-08-23T02:56:23.106Z,3.67
2022-08-23T02:58:54.311Z,3.53
2022-08-23T03:01:26.242Z,3.37
2022-08-23T03:03:55.137Z,3.30
2022-08-23T03:06:25.348Z,3.33
2022-08-23T03:08:54.534Z,3.30
2022-08-23T03:11:23.577Z,3.47
2022-08-23T03:13:52.559Z,3.83
2022-08-23T03:16:21.493Z,3.40
2022-08-23T03:18:51.527Z,3.90
2022-08-23T03:21:21.093Z,3.67
2022-08-23T03:23:49.768Z,3.60
2022-08-23T03:26:18.696Z,4.00
2022-08-23T03:28:48.216Z,3.80
2022-08-23T03:31:17.345Z,4.00
2022-08-23T03:33:45.811Z,4.17
2022-08-23T03:36:15.819Z,3.90
2022-08-23T03:38:45.370Z,4.20
2022-08-23T03:41:13.994Z,4.03
2022-08-23T03:43:42.542Z,3.93
2022-08-23T03:46:22.915Z,3.47
2022-08-23T03:48:52.257Z,3.53
2022-08-23T03:51:22.239Z,4.27
2022-08-23T03:53:51.944Z,4.63
2022-08-23T03:56:24.011Z,4.07
2022-08-23T03:58:53.074Z,5.10
2022-08-23T04:01:25.217Z,5.20
2022-08-23T04:03:59.248Z,5.03
2022-08-23T04:06:29.555Z,4.20
2022-08-23T04:08:58.524Z,5.17
2022-08-23T04:11:27.614Z,4.80
2022-08-23T04:13:56.202Z,4.60
2022-08-23T04:16:24.667Z,5.13
2022-08-23T04:18:53.141Z,4.97
2022-08-23T04:21:23.922Z,4.47
2022-08-23T04:23:54.130Z,4.53
2022-08-23T04:26:23.645Z,4.40
2022-08-23T04:28:55.569Z,4.43
2022-08-23T04:31:26.522Z,4.73
2022-08-23T04:33:55.668Z,4.33
2022-08-23T04:36:25.390Z,4.63
2022-08-23T04:38:55.187Z,4.00
2022-08-23T04:41:40.914Z,3.90
2022-08-23T04:44:09.461Z,4.30
2022-08-23T04:46:39.856Z,4.03
2022-08-23T04:49:08.272Z,4.70
2022-08-23T04:51:36.630Z,4.90
2022-08-23T04:54:08.561Z,4.80
2022-08-23T04:56:37.367Z,3.80
2022-08-23T04:59:06.091Z,4.23
2022-08-23T05:01:34.962Z,3.63
2022-08-23T05:04:03.220Z,3.90
2022-08-23T05:06:32.392Z,4.23
2022-08-23T05:09:01.741Z,4.43
2022-08-23T05:11:31.646Z,4.17
2022-08-23T05:14:00.019Z,4.63
2022-08-23T05:16:28.375Z,3.60
2022-08-23T05:18:56.735Z,4.30
2022-08-23T05:21:26.118Z,4.23
2022-08-23T05:23:55.060Z,4.47
2022-08-23T05:26:23.605Z,4.00
2022-08-23T05:28:53.636Z,4.93
2022-08-23T05:31:24.461Z,4.37
2022-08-23T05:33:52.882Z,4.50
2022-08-23T05:36:22.274Z,4.80
2022-08-23T05:38:52.323Z,4.60
2022-08-23T05:41:21.277Z,4.63
2022-08-23T05:43:50.534Z,4.70
2022-08-23T05:46:22.554Z,4.67
2022-08-23T05:48:57.060Z,4.70
2022-08-23T05:51:27.855Z,4.37
2022-08-23T05:53:56.868Z,4.97
2022-08-23T05:56:27.645Z,5.30
2022-08-23T05:59:00.023Z,4.53
2022-08-23T06:01:30.839Z,4.73
2022-08-23T06:04:01.007Z,4.77
2022-08-23T06:06:37.077Z,4.93
2022-08-23T06:09:07.549Z,4.80
2022-08-23T06:11:36.805Z,4.50
2022-08-23T06:14:07.630Z,4.03
2022-08-23T06:16:40.915Z,4.63
2022-08-23T06:19:09.734Z,4.57
2022-08-23T06:21:38.973Z,3.97
2022-08-23T06:24:07.825Z,4.17
2022-08-23T06:26:38.900Z,4.20
2022-08-23T06:29:12.085Z,3.97
2022-08-23T06:31:49.761Z,4.60
2022-08-23T06:34:21.801Z,4.20
2022-08-23T06:36:52.567Z,3.60
2022-08-23T06:39:22.570Z,4.47
2022-08-23T06:41:51.339Z,4.10
2022-08-23T06:44:20.753Z,3.67
2022-08-23T06:46:50.755Z,4.10
2022-08-23T06:49:19.307Z,3.93
2022-08-23T06:51:51.120Z,3.73
2022-08-23T06:54:22.444Z,3.37
2022-08-23T06:56:51.607Z,3.83
2022-08-23T06:59:20.342Z,4.07
2022-08-23T07:01:54.887Z,3.80
2022-08-23T07:04:26.429Z,3.63
2022-08-23T07:06:54.453Z,3.87
2022-08-23T07:09:22.976Z,3.60
2022-08-23T07:11:51.294Z,3.43
2022-08-23T07:14:21.487Z,3.33
2022-08-23T07:16:52.553Z,3.30
2022-08-23T07:19:22.940Z,3.30
2022-08-23T07:21:57.473Z,4.00
2022-08-23T07:24:29.482Z,3.17
2022-08-23T07:27:01.479Z,3.83
2022-08-23T07:29:30.043Z,3.30
2022-08-23T07:31:59.956Z,3.03
2022-08-23T07:34:28.362Z,3.47
2022-08-23T07:36:56.638Z,3.43
2022-08-23T07:39:26.452Z,3.43
2022-08-23T07:41:55.077Z,2.97
2022-08-23T07:44:24.979Z,3.33
2022-08-23T07:46:55.948Z,3.03
2022-08-23T07:49:29.362Z,3.10
2022-08-23T07:51:59.400Z,3.43
2022-08-23T07:54:28.730Z,2.87
2022-08-23T07:56:56.808Z,3.57
2022-08-23T07:59:25.143Z,4.67
2022-08-23T08:01:53.377Z,3.50
2022-08-23T08:04:21.837Z,3.53
2022-08-23T08:07:16.990Z,2.70
2022-08-23T08:09:40.931Z,3.20
2022-08-23T08:12:11.217Z,3.13
2022-08-23T08:14:39.944Z,3.20
2022-08-23T08:17:08.278Z,3.30
2022-08-23T08:19:36.553Z,3.60
2022-08-23T08:22:06.067Z,3.07
2022-08-23T08:24:34.469Z,2.93
2022-08-23T08:27:02.853Z,3.07
2022-08-23T08:29:30.877Z,2.77
2022-08-23T08:31:58.845Z,2.70
2022-08-23T08:34:26.874Z,2.93
2022-08-23T08:36:59.253Z,2.10
2022-08-23T08:39:32.363Z,3.00
2022-08-23T08:42:34.054Z,2.10
2022-08-23T08:45:07.532Z,3.10
2022-08-23T08:47:40.077Z,3.10
2022-08-23T08:50:17.339Z,2.67
2022-08-23T08:52:50.136Z,1.80
2022-08-23T08:55:26.885Z,2.63
2022-08-23T08:57:56.201Z,3.00
2022-08-23T09:00:28.428Z,2.73
2022-08-23T09:02:59.335Z,2.93
2022-08-23T09:05:32.546Z,2.30
2022-08-23T09:08:14.683Z,2.90
2022-08-23T09:10:54.102Z,3.50
2022-08-23T09:14:01.729Z,2.87
2022-08-23T09:16:39.367Z,2.90
2022-08-23T09:19:08.135Z,2.70
2022-08-23T09:21:45.190Z,2.53
2022-08-23T09:24:14.520Z,2.90
2022-08-23T09:26:44.263Z,2.90
2022-08-23T09:29:24.130Z,2.70
2022-08-23T09:31:58.448Z,2.90
2022-08-23T09:34:42.204Z,2.97
2022-08-23T09:37:19.171Z,2.90
2022-08-23T09:39:52.092Z,3.03
2022-08-23T09:42:35.056Z,2.77
2022-08-23T09:45:05.416Z,2.60
2022-08-23T09:47:35.803Z,2.30
2022-08-23T09:50:24.300Z,2.80
2022-08-23T09:52:58.463Z,2.83
2022-08-23T09:55:32.454Z,2.63
2022-08-23T09:58:02.616Z,2.67
2022-08-23T10:00:35.190Z,2.80
2022-08-23T10:06:10.926Z,2.97
2022-08-23T10:08:54.931Z,2.50
2022-08-23T10:11:26.864Z,2.27
2022-08-23T10:13:59.150Z,2.80
2022-08-23T10:16:38.443Z,2.43
2022-08-23T10:19:13.697Z,2.60
2022-08-23T10:21:47.653Z,2.97
2022-08-23T10:24:21.143Z,2.30
2022-08-23T10:27:24.441Z,2.50
2022-08-23T10:29:58.499Z,2.27
2022-08-23T10:32:36.451Z,2.10
2022-08-23T10:35:29.569Z,2.30
2022-08-23T10:38:21.094Z,2.40
2022-08-23T10:41:02.199Z,2.63
2022-08-23T10:43:39.894Z,2.00
2022-08-23T10:46:11.092Z,2.30
2022-08-23T10:48:51.493Z,2.23
2022-08-23T10:51:31.319Z,2.50
2022-08-23T10:54:06.265Z,2.30
2022-08-23T10:56:34.858Z,2.57
2022-08-23T10:59:09.127Z,2.20
2022-08-23T11:01:50.492Z,2.23
2022-08-23T11:04:25.111Z,1.93
2022-08-23T11:06:55.809Z,2.03
2022-08-23T11:09:47.916Z,2.00
2022-08-23T11:12:28.719Z,1.73
2022-08-23T11:15:20.444Z,2.30
2022-08-23T11:18:03.137Z,2.00
2022-08-23T11:21:05.437Z,1.93
2022-08-23T11:23:58.183Z,1.97
2022-08-23T11:27:06.581Z,1.83
2022-08-23T11:29:41.461Z,1.70
2022-08-23T11:32:37.946Z,1.70
2022-08-23T11:35:43.398Z,1.57
2022-08-23T11:38:13.472Z,1.87
2022-08-23T11:40:58.814Z,1.57
2022-08-23T11:43:37.821Z,1.70
2022-08-23T11:46:26.860Z,1.60
2022-08-23T11:49:13.806Z,1.67
2022-08-23T11:51:54.659Z,1.57
2022-08-23T11:54:42.258Z,1.80
2022-08-23T11:57:36.454Z,2.03
2022-08-23T12:00:20.936Z,1.70
2022-08-23T12:03:06.605Z,1.90
2022-08-23T12:06:06.647Z,1.90
2022-08-23T12:08:58.070Z,1.87
2022-08-23T12:11:47.275Z,2.10
2022-08-23T12:14:36.428Z,1.67
2022-08-23T12:17:07.146Z,2.00
2022-08-23T12:19:42.916Z,1.90
2022-08-23T12:22:15.772Z,1.80
2022-08-23T12:24:52.349Z,1.73
2022-08-23T12:27:29.734Z,1.80
2022-08-23T12:30:03.937Z,1.87
2022-08-23T12:32:40.110Z,1.87
2022-08-23T12:35:25.796Z,1.87
2022-08-23T12:38:02.099Z,1.60
2022-08-23T12:40:39.788Z,1.80
2022-08-23T12:43:22.302Z,2.10
2022-08-23T12:45:54.109Z,1.93
2022-08-23T12:48:25.157Z,1.80
2022-08-23T12:50:56.614Z,2.00
2022-08-23T12:53:30.301Z,1.60
2022-08-23T12:56:05.382Z,1.80
2022-08-23T12:58:37.939Z,1.77
2022-08-23T13:01:09.516Z,1.93
2022-08-23T13:03:40.402Z,2.00
2022-08-23T13:06:12.186Z,1.90
2022-08-23T13:08:44.020Z,1.93
2022-08-23T13:11:15.894Z,1.63
2022-08-23T13:13:45.434Z,2.13
2022-08-23T13:16:30.583Z,1.80
2022-08-23T13:19:16.764Z,1.80
2022-08-23T13:21:45.546Z,2.10
2022-08-23T13:24:38.366Z,1.87
2022-08-23T13:27:24.126Z,1.70
2022-08-23T13:29:55.140Z,1.53
2022-08-23T13:32:32.862Z,1.70
2022-08-23T13:35:36.430Z,1.70
2022-08-23T13:38:20.910Z,1.90
2022-08-23T13:41:00.561Z,1.63
2022-08-23T13:43:34.249Z,1.70
2022-08-23T13:46:13.753Z,1.60
2022-08-23T13:48:49.399Z,1.67
2022-08-23T13:51:30.250Z,1.50
2022-08-23T13:54:00.629Z,2.00
2022-08-23T13:56:31.224Z,1.83
2022-08-23T13:59:03.694Z,2.10
2022-08-23T14:01:32.913Z,2.03
2022-08-23T14:04:01.644Z,1.90
2022-08-23T14:06:30.104Z,1.93
2022-08-23T14:08:58.188Z,1.90
2022-08-23T14:11:26.523Z,2.50
2022-08-23T14:13:54.942Z,2.27
2022-08-23T14:16:35.222Z,1.80
2022-08-23T14:19:16.845Z,2.67
2022-08-23T14:21:57.051Z,1.87
2022-08-23T14:24:26.921Z,2.07
2022-08-23T14:26:55.486Z,1.87
2022-08-23T14:29:24.304Z,1.67
2022-08-23T14:31:53.875Z,1.73
2022-08-23T14:34:23.009Z,1.80
2022-08-23T14:39:40.037Z,1.80
2022-08-23T14:42:08.904Z,1.90
2022-08-23T14:44:37.321Z,1.77
2022-08-23T14:47:07.767Z,1.60
2022-08-23T14:49:36.754Z,1.90
2022-08-23T14:52:17.421Z,1.80
2022-08-23T14:54:45.946Z,2.00
2022-08-23T14:57:22.241Z,1.83
2022-08-23T14:59:53.975Z,1.77
2022-08-23T15:02:26.364Z,1.83
2022-08-23T15:04:56.584Z,2.20
2022-08-23T15:07:25.249Z,1.80
2022-08-23T15:09:55.816Z,1.80
2022-08-23T15:15:17.645Z,1.83
2022-08-23T15:24:18.891Z,1.70
2022-08-23T15:26:47.334Z,2.13
2022-08-23T15:29:26.516Z,1.90
2022-08-23T15:32:13.601Z,1.77
2022-08-23T15:34:45.545Z,2.23
2022-08-23T15:40:43.628Z,1.53
2022-08-23T15:43:12.629Z,1.60
2022-08-23T15:45:41.341Z,1.93
2022-08-23T15:48:19.418Z,1.97
2022-08-23T15:50:56.056Z,1.60
2022-08-23T15:53:27.162Z,2.00
2022-08-23T15:56:05.024Z,1.50
2022-08-23T15:58:42.227Z,1.60
2022-08-23T16:01:12.738Z,1.67
2022-08-23T16:03:43.762Z,1.50
2022-08-23T16:06:14.438Z,1.57
2022-08-23T16:08:46.178Z,1.80
2022-08-23T16:11:16.081Z,1.63
2022-08-23T16:13:47.827Z,1.40
2022-08-23T16:16:22.299Z,2.07
2022-08-23T16:18:51.766Z,1.83
2022-08-23T16:21:22.530Z,1.70
2022-08-23T16:23:51.534Z,1.80
2022-08-23T16:26:26.698Z,1.60
2022-08-23T16:29:04.060Z,1.50
2022-08-23T16:31:38.629Z,1.73
2022-08-23T16:34:10.528Z,3.33
2022-08-23T16:36:44.300Z,1.97
2022-08-23T16:39:13.607Z,8.20
2022-08-23T16:41:43.495Z,4.10
2022-08-23T16:44:12.159Z,39.93
2022-08-23T16:46:43.007Z,32.40
2022-08-23T16:49:11.646Z,24.27
2022-08-23T16:51:41.679Z,12.50
2022-08-23T16:54:10.661Z,1.80
2022-08-23T16:56:40.903Z,9.40
2022-08-23T16:59:14.072Z,35.27
2022-08-23T17:01:48.202Z,8.30
2022-08-23T17:04:16.891Z,4.47
2022-08-23T17:06:46.311Z,3.33
2022-08-23T17:09:15.995Z,2.07
2022-08-23T17:11:45.451Z,2.17
2022-08-23T17:14:15.638Z,1.80
2022-08-23T17:16:45.200Z,2.10
2022-08-23T17:19:14.086Z,2.03
2022-08-23T17:21:42.814Z,3.47
2022-08-23T17:24:11.270Z,2.67
2022-08-23T17:26:40.083Z,2.17
2022-08-23T17:29:09.487Z,2.20
2022-08-23T17:31:40.177Z,2.10
2022-08-23T17:34:08.609Z,2.10
2022-08-23T17:36:48.426Z,1.67
2022-08-23T17:39:19.808Z,2.40
2022-08-23T17:41:48.356Z,1.90
2022-08-23T17:44:17.458Z,1.87
2022-08-23T17:46:48.719Z,1.77
2022-08-23T17:49:20.602Z,2.07
2022-08-23T17:51:49.298Z,1.80
2022-08-23T17:54:18.478Z,2.63
2022-08-23T17:56:50.063Z,2.00
2022-08-23T17:59:19.573Z,2.23
2022-08-23T18:01:50.040Z,2.10
2022-08-23T18:04:18.737Z,2.30
2022-08-23T18:06:58.751Z,2.30
2022-08-23T18:09:28.202Z,2.40
2022-08-23T18:11:56.908Z,2.13
2022-08-23T18:14:27.958Z,2.10
2022-08-23T18:16:58.258Z,2.83
2022-08-23T18:19:26.843Z,2.07
2022-08-23T18:21:58.605Z,2.30
2022-08-23T18:24:32.043Z,2.97
2022-08-23T18:27:23.181Z,5.57
2022-08-23T18:29:52.060Z,5.87
2022-08-23T18:32:23.089Z,5.03
2022-08-23T18:34:51.559Z,4.47
2022-08-23T18:37:21.987Z,4.70
2022-08-23T18:39:50.614Z,4.80
2022-08-23T18:42:19.393Z,4.47
2022-08-23T18:44:47.642Z,3.63
2022-08-23T18:47:16.070Z,3.50
2022-08-23T18:49:46.850Z,3.50
2022-08-23T18:52:15.096Z,3.10
2022-08-23T18:54:43.339Z,3.57
2022-08-23T18:57:16.134Z,3.40
2022-08-23T18:59:45.092Z,3.10
2022-08-23T19:02:13.493Z,3.33
2022-08-23T19:04:42.248Z,3.70
2022-08-23T19:07:12.175Z,3.83
2022-08-23T19:09:40.637Z,3.37
2022-08-23T19:12:09.683Z,3.43
2022-08-23T19:14:38.144Z,3.33
2022-08-23T19:17:08.022Z,4.17
2022-08-23T19:19:36.810Z,3.47
2022-08-23T19:22:05.215Z,3.37
2022-08-23T19:24:35.129Z,3.93
2022-08-23T19:27:03.612Z,2.90
2022-08-23T19:29:33.423Z,3.10
2022-08-23T19:32:02.892Z,3.60
2022-08-23T19:34:31.378Z,3.10
2022-08-23T19:37:01.435Z,2.90
2022-08-23T19:39:30.817Z,3.30
2022-08-23T19:42:06.454Z,3.47
2022-08-23T19:44:37.679Z,3.57
2022-08-23T19:47:08.458Z,3.60
2022-08-23T19:50:11.991Z,3.43
2022-08-23T19:52:41.327Z,3.43
2022-08-23T19:55:12.424Z,3.47
2022-08-23T19:57:42.672Z,3.37
2022-08-23T20:00:19.847Z,3.47
2022-08-23T20:02:48.820Z,3.30
2022-08-23T20:05:20.480Z,3.53
2022-08-23T20:07:49.607Z,2.77
2022-08-23T20:10:18.579Z,3.27
2022-08-23T20:12:48.441Z,3.30
2022-08-23T20:15:16.591Z,4.23
2022-08-23T20:17:46.640Z,4.70
2022-08-23T20:20:16.970Z,4.60
2022-08-23T20:23:03.031Z,5.03
2022-08-23T20:25:31.766Z,4.07
2022-08-23T20:28:04.984Z,4.00
2022-08-23T20:30:43.432Z,3.70
2022-08-23T20:33:11.711Z,4.47
2022-08-23T20:35:40.311Z,3.93
2022-08-23T20:38:08.449Z,3.30
2022-08-23T20:40:50.269Z,3.57
2022-08-23T20:43:23.378Z,3.73
2022-08-23T20:45:51.459Z,3.53
2022-08-23T20:48:20.719Z,3.90
2022-08-23T20:50:48.776Z,3.87
2022-08-23T20:53:16.778Z,4.10
2022-08-23T20:55:45.179Z,3.90
2022-08-23T20:58:13.318Z,3.77
2022-08-23T21:01:14.486Z,3.97
2022-08-23T21:03:43.111Z,3.57
2022-08-23T21:06:19.875Z,3.87
2022-08-23T21:08:50.559Z,3.23
2022-08-23T21:11:22.678Z,3.60
2022-08-23T21:13:51.035Z,3.77
2022-08-23T21:16:23.107Z,4.03
2022-08-23T21:18:52.110Z,3.80
2022-08-23T21:21:23.580Z,3.50
2022-08-23T21:23:51.965Z,3.77
2022-08-23T21:26:22.427Z,3.30
2022-08-23T21:28:51.040Z,3.20
2022-08-23T21:31:23.840Z,3.83
2022-08-23T21:33:52.702Z,3.83
2022-08-23T21:36:22.488Z,3.50
2022-08-23T21:38:51.166Z,3.33
2022-08-23T21:41:33.562Z,3.23
2022-08-23T21:44:01.599Z,3.40
2022-08-23T21:46:31.086Z,3.43
2022-08-23T21:49:01.090Z,2.90
2022-08-23T21:51:31.942Z,3.17
2022-08-23T21:54:11.625Z,2.77
2022-08-23T21:56:43.637Z,2.97
2022-08-23T21:59:29.756Z,3.50
2022-08-23T22:01:59.247Z,3.23
2022-08-23T22:04:27.333Z,3.37
2022-08-23T22:06:56.030Z,3.03
2022-08-23T22:09:31.408Z,3.37
2022-08-23T22:12:00.438Z,3.53
2022-08-23T22:14:30.441Z,3.67
2022-08-23T22:17:08.406Z,3.27
2022-08-23T22:19:36.489Z,3.20
2022-08-23T22:22:05.409Z,3.60
2022-08-23T22:24:33.469Z,3.70
2022-08-23T22:27:01.890Z,3.37
2022-08-23T22:29:29.945Z,3.27
2022-08-23T22:31:57.955Z,3.73
2022-08-23T22:34:27.502Z,3.40
2022-08-23T22:36:55.469Z,3.60
2022-08-23T22:39:28.617Z,3.63
2022-08-23T22:41:56.554Z,3.47
2022-08-23T22:44:25.067Z,3.57
2022-08-23T22:46:53.170Z,3.60
2022-08-23T22:49:21.154Z,3.97
2022-08-23T22:51:52.079Z,3.80
2022-08-23T22:54:23.240Z,3.90
2022-08-23T22:56:52.959Z,3.83
2022-08-23T22:59:27.786Z,3.57
2022-08-23T23:02:03.246Z,3.47
2022-08-23T23:04:34.092Z,3.90
2022-08-23T23:07:05.315Z,3.40
2022-08-23T23:09:33.275Z,3.17
2022-08-23T23:12:01.256Z,3.83
2022-08-23T23:14:29.223Z,4.07
2022-08-23T23:16:57.324Z,3.50
2022-08-23T23:19:42.909Z,3.60
2022-08-23T23:22:15.185Z,3.50
2022-08-23T23:24:43.173Z,3.50
2022-08-23T23:27:11.073Z,3.70
2022-08-23T23:29:39.056Z,3.23
2022-08-23T23:32:07.313Z,3.33
2022-08-23T23:34:36.526Z,3.40
2022-08-23T23:37:04.876Z,3.33
2022-08-23T23:39:34.536Z,3.77
2022-08-23T23:42:02.556Z,3.83
2022-08-23T23:44:31.443Z,3.83
2022-08-23T23:47:00.208Z,3.70
2022-08-23T23:49:32.562Z,3.83
2022-08-23T23:52:02.750Z,3.40
2022-08-23T23:54:31.411Z,3.33
2022-08-23T23:57:01.016Z,3.70
2022-08-23T23:59:29.088Z,3.90
